Time;durP1;ratioP1;P1;durP2;ratioP2;P2;SDS_P1;SDS_P2;PMS_P1;PMS_P2;Temp;Humidity;BMP_temperature;BMP_pressure;BME280_temperature;BME280_humidity;BME280_pressure;Samples;Min_cycle;Max_cycle;Signal;HPM_P1;HPM_P2
2022/04/19 00:01:21;;;;;;;15.80;12.85;;;;;;;;;;5043116;28;20017;-68
2022/04/19 00:03:46;;;;;;;15.85;12.32;;;;;;;;;;5040270;28;20055;-68
2022/04/19 00:06:15;;;;;;;14.98;12.63;;;;;;;;;;5041966;28;20044;-69
2022/04/19 00:08:40;;;;;;;16.60;12.73;;;;;;;;;;5025557;28;20492;-68
2022/04/19 00:11:13;;;;;;;16.55;12.60;;;;;;;;;;5041351;28;20031;-68
2022/04/19 00:13:38;;;;;;;14.70;11.65;;;;;;;;;;5037796;28;20040;-69
2022/04/19 00:16:03;;;;;;;15.07;12.65;;;;;;;;;;5053392;28;20444;-68
2022/04/19 00:18:29;;;;;;;14.75;12.95;;;;;;;;;;5058666;28;20546;-68
2022/04/19 00:20:54;;;;;;;16.42;13.25;;;;;;;;;;5060346;28;20042;-68
2022/04/19 00:23:20;;;;;;;14.20;12.55;;;;;;;;;;5056543;28;20190;-69
2022/04/19 00:25:46;;;;;;;15.20;11.73;;;;;;;;;;5060650;28;20032;-68
2022/04/19 00:28:18;;;;;;;15.40;12.75;;;;;;;;;;5057439;28;20017;-68
2022/04/19 00:30:46;;;;;;;17.35;12.68;;;;;;;;;;5057677;28;20021;-69
2022/04/19 00:33:16;;;;;;;15.00;12.40;;;;;;;;;;5060001;28;20020;-68
2022/04/19 00:35:41;;;;;;;15.80;12.52;;;;;;;;;;5058785;28;20028;-69
2022/04/19 00:38:07;;;;;;;14.00;12.25;;;;;;;;;;5059434;28;20112;-69
2022/04/19 00:40:32;;;;;;;15.38;12.82;;;;;;;;;;5058346;28;20021;-69
2022/04/19 00:42:57;;;;;;;14.48;12.20;;;;;;;;;;5044513;28;20369;-68
2022/04/19 00:45:23;;;;;;;16.42;12.40;;;;;;;;;;5037335;28;20029;-67
2022/04/19 00:47:49;;;;;;;17.25;13.73;;;;;;;;;;5041674;28;20021;-68
2022/04/19 00:50:32;;;;;;;17.77;13.45;;;;;;;;;;5055560;28;20360;-68
2022/04/19 00:52:58;;;;;;;16.17;14.18;;;;;;;;;;5060678;28;20471;-69
2022/04/19 00:55:23;;;;;;;16.73;13.68;;;;;;;;;;5058885;28;20094;-69
2022/04/19 00:57:50;;;;;;;16.63;14.23;;;;;;;;;;5059201;28;20247;-68
2022/04/19 01:00:20;;;;;;;16.73;14.10;;;;;;;;;;5059121;28;20066;-69
2022/04/19 01:02:45;;;;;;;18.25;15.10;;;;;;;;;;5059430;28;20464;-68
2022/04/19 01:05:11;;;;;;;17.08;14.20;;;;;;;;;;5060492;28;20090;-68
2022/04/19 01:07:37;;;;;;;16.25;14.25;;;;;;;;;;5059105;28;20466;-67
2022/04/19 01:10:03;;;;;;;17.52;14.30;;;;;;;;;;5061707;28;20103;-69
2022/04/19 01:15:13;;;;;;;16.80;14.70;;;;;;;;;;5053907;28;20063;-68
2022/04/19 01:17:40;;;;;;;16.92;13.95;;;;;;;;;;5043567;28;20061;-68
2022/04/19 01:20:08;;;;;;;17.15;14.10;;;;;;;;;;5043089;28;20021;-69
2022/04/19 01:22:34;;;;;;;15.70;14.00;;;;;;;;;;5044527;28;20528;-69
2022/04/19 01:24:59;;;;;;;18.42;14.35;;;;;;;;;;5045833;28;20025;-68
2022/04/19 01:27:24;;;;;;;16.27;14.35;;;;;;;;;;5040696;28;20078;-68
2022/04/19 01:29:51;;;;;;;16.15;13.82;;;;;;;;;;5042585;28;20025;-68
2022/04/19 01:32:20;;;;;;;16.65;14.75;;;;;;;;;;5043776;28;20052;-69
2022/04/19 01:34:46;;;;;;;17.15;13.93;;;;;;;;;;5041664;28;20174;-70
2022/04/19 01:37:12;;;;;;;18.33;15.57;;;;;;;;;;5043120;28;20124;-68
2022/04/19 01:42:22;;;;;;;17.67;15.30;;;;;;;;;;5040875;28;20048;-68
2022/04/19 01:44:47;;;;;;;17.00;14.63;;;;;;;;;;5039619;28;20395;-68
2022/04/19 01:47:13;;;;;;;18.35;14.77;;;;;;;;;;5041204;28;20021;-68
2022/04/19 01:49:38;;;;;;;18.50;15.70;;;;;;;;;;5040473;28;20375;-68
2022/04/19 01:52:03;;;;;;;19.95;16.25;;;;;;;;;;5042820;28;20412;-68
2022/04/19 01:54:29;;;;;;;21.35;15.45;;;;;;;;;;5042205;28;20098;-69
2022/04/19 01:56:55;;;;;;;20.73;16.75;;;;;;;;;;5040887;28;20025;-69
2022/04/19 01:59:24;;;;;;;22.63;16.65;;;;;;;;;;5041351;28;20020;-69
2022/04/19 02:01:49;;;;;;;19.55;16.48;;;;;;;;;;5041454;28;20013;-68
2022/04/19 02:04:15;;;;;;;20.20;16.02;;;;;;;;;;5041626;28;20476;-69
2022/04/19 02:06:40;;;;;;;21.80;16.70;;;;;;;;;;5040384;28;20445;-68
2022/04/19 02:09:06;;;;;;;21.10;17.05;;;;;;;;;;5044369;28;20517;-67
2022/04/19 02:11:31;;;;;;;20.40;16.65;;;;;;;;;;5050515;28;20463;-68
2022/04/19 02:13:56;;;;;;;21.02;17.17;;;;;;;;;;5040454;28;20033;-69
2022/04/19 02:16:22;;;;;;;21.60;16.40;;;;;;;;;;5042929;28;20029;-69
2022/04/19 02:18:50;;;;;;;20.65;18.20;;;;;;;;;;5038577;28;20025;-70
2022/04/19 02:21:16;;;;;;;20.60;16.65;;;;;;;;;;5042436;28;20029;-68
2022/04/19 02:23:41;;;;;;;21.60;17.70;;;;;;;;;;5040796;28;20281;-68
2022/04/19 02:26:08;;;;;;;20.60;17.00;;;;;;;;;;5042869;28;20043;-68
2022/04/19 02:28:34;;;;;;;20.92;16.45;;;;;;;;;;5022409;28;20035;-67
2022/04/19 02:30:59;;;;;;;23.33;17.67;;;;;;;;;;5045444;28;20116;-67
2022/04/19 02:33:28;;;;;;;21.67;18.20;;;;;;;;;;5038570;28;20382;-68
2022/04/19 02:35:54;;;;;;;22.00;18.27;;;;;;;;;;5044149;28;20017;-68
2022/04/19 02:38:19;;;;;;;20.20;17.20;;;;;;;;;;5040606;28;20401;-68
2022/04/19 02:40:44;;;;;;;21.73;17.77;;;;;;;;;;5040735;28;20140;-69
2022/04/19 02:43:09;;;;;;;23.02;17.45;;;;;;;;;;5039988;28;20150;-69
2022/04/19 02:45:35;;;;;;;21.98;19.13;;;;;;;;;;5037100;28;20081;-69
2022/04/19 02:48:04;;;;;;;20.75;18.35;;;;;;;;;;5043613;28;20041;-68
2022/04/19 02:50:30;;;;;;;22.15;18.67;;;;;;;;;;5039239;28;20341;-66
2022/04/19 02:52:55;;;;;;;21.77;18.48;;;;;;;;;;5042148;28;20037;-69
2022/04/19 02:55:20;;;;;;;25.75;19.23;;;;;;;;;;5055877;28;20055;-69
2022/04/19 02:57:46;;;;;;;25.90;18.92;;;;;;;;;;5056400;28;20518;-68
2022/04/19 03:00:12;;;;;;;23.17;18.98;;;;;;;;;;5060147;28;20036;-68
2022/04/19 03:02:37;;;;;;;21.35;18.38;;;;;;;;;;5043411;28;20109;-68
2022/04/19 03:05:03;;;;;;;21.98;18.80;;;;;;;;;;5021223;28;20122;-69
2022/04/19 03:07:29;;;;;;;23.52;20.25;;;;;;;;;;5041851;28;20028;-68
2022/04/19 03:09:55;;;;;;;24.77;19.67;;;;;;;;;;5041214;28;20021;-68
2022/04/19 03:12:20;;;;;;;22.70;19.08;;;;;;;;;;5022563;28;20082;-68
2022/04/19 03:14:45;;;;;;;22.63;18.70;;;;;;;;;;5021577;28;20047;-68
2022/04/19 03:17:11;;;;;;;24.60;20.08;;;;;;;;;;5042596;28;20124;-68
2022/04/19 03:19:36;;;;;;;25.67;20.50;;;;;;;;;;5037817;28;20028;-69
2022/04/19 03:22:03;;;;;;;24.70;19.70;;;;;;;;;;5059390;28;20028;-68
2022/04/19 03:29:56;;;;;;;23.73;19.67;;;;;;;;;;5059587;28;20098;-70
2022/04/19 03:32:23;;;;;;;24.33;18.58;;;;;;;;;;5062778;28;20427;-67
2022/04/19 03:34:49;;;;;;;28.17;21.65;;;;;;;;;;5058244;28;20040;-68
2022/04/19 03:37:15;;;;;;;30.92;21.85;;;;;;;;;;5063145;28;20122;-69
2022/04/19 03:39:40;;;;;;;25.38;20.83;;;;;;;;;;5060530;28;20439;-68
2022/04/19 03:42:08;;;;;;;25.73;20.17;;;;;;;;;;5042498;28;20059;-69
2022/04/19 03:44:34;;;;;;;24.92;21.05;;;;;;;;;;5058753;28;20455;-69
2022/04/19 03:47:09;;;;;;;27.60;21.52;;;;;;;;;;5060079;28;20027;-68
2022/04/19 03:49:35;;;;;;;27.40;20.83;;;;;;;;;;5040930;28;20180;-67
2022/04/19 03:52:00;;;;;;;28.08;21.98;;;;;;;;;;5060804;28;20444;-69
2022/04/19 03:54:25;;;;;;;27.52;22.05;;;;;;;;;;5060443;28;20082;-67
2022/04/19 03:56:51;;;;;;;27.83;21.95;;;;;;;;;;5055662;28;20383;-69
2022/04/19 03:59:16;;;;;;;28.27;21.70;;;;;;;;;;5059877;28;20029;-69
2022/04/19 04:01:42;;;;;;;23.98;21.10;;;;;;;;;;5050329;28;20013;-68
2022/04/19 04:04:07;;;;;;;27.77;21.77;;;;;;;;;;5044051;28;20060;-69
2022/04/19 04:06:36;;;;;;;28.45;22.00;;;;;;;;;;5057099;28;20442;-69
2022/04/19 04:09:02;;;;;;;28.75;22.63;;;;;;;;;;5060021;28;20024;-69
2022/04/19 04:11:27;;;;;;;28.77;22.35;;;;;;;;;;5059311;28;20193;-68
2022/04/19 04:13:52;;;;;;;29.10;22.42;;;;;;;;;;5038474;28;20040;-68
2022/04/19 04:16:18;;;;;;;27.52;22.05;;;;;;;;;;5059725;28;20028;-68
2022/04/19 04:18:43;;;;;;;27.52;22.60;;;;;;;;;;5058963;28;20491;-69
2022/04/19 04:21:09;;;;;;;29.23;23.05;;;;;;;;;;5060759;28;20095;-68
2022/04/19 04:23:35;;;;;;;29.45;23.05;;;;;;;;;;5060868;28;20051;-68
2022/04/19 04:26:00;;;;;;;27.65;22.95;;;;;;;;;;5060866;28;20756;-69
2022/04/19 04:28:25;;;;;;;28.58;22.77;;;;;;;;;;5056956;28;20459;-69
2022/04/19 04:30:51;;;;;;;30.63;22.17;;;;;;;;;;5058492;28;20032;-69
2022/04/19 04:33:21;;;;;;;27.50;23.33;;;;;;;;;;5052269;28;20028;-69
2022/04/19 04:35:47;;;;;;;27.52;23.33;;;;;;;;;;5058422;28;20331;-69
2022/04/19 04:38:12;;;;;;;30.20;23.55;;;;;;;;;;5062750;28;20024;-68
2022/04/19 04:40:37;;;;;;;28.27;23.85;;;;;;;;;;5046746;28;20106;-68
2022/04/19 04:43:02;;;;;;;30.30;22.90;;;;;;;;;;5023168;28;20190;-68
2022/04/19 04:45:28;;;;;;;28.27;22.65;;;;;;;;;;5022672;28;20120;-69
2022/04/19 04:50:37;;;;;;;27.00;22.20;;;;;;;;;;5042629;28;20340;-69
2022/04/19 04:53:03;;;;;;;29.05;24.15;;;;;;;;;;5050165;28;20017;-69
2022/04/19 04:55:28;;;;;;;30.85;24.35;;;;;;;;;;5065184;28;20024;-68
2022/04/19 04:57:57;;;;;;;34.38;24.95;;;;;;;;;;5061660;28;20127;-69
2022/04/19 05:00:23;;;;;;;33.83;25.95;;;;;;;;;;5062985;28;20012;-68
2022/04/19 05:02:48;;;;;;;31.90;24.65;;;;;;;;;;5064601;28;20044;-68
2022/04/19 05:05:13;;;;;;;31.05;24.80;;;;;;;;;;5055121;28;20451;-68
2022/04/19 05:07:42;;;;;;;33.35;24.77;;;;;;;;;;5026782;28;20131;-67
2022/04/19 05:10:07;;;;;;;31.45;24.02;;;;;;;;;;5047109;28;20021;-69
2022/04/19 05:12:33;;;;;;;36.38;25.38;;;;;;;;;;5044342;28;20024;-68
2022/04/19 05:14:58;;;;;;;30.88;24.05;;;;;;;;;;5041586;28;20033;-69
2022/04/19 05:17:23;;;;;;;32.00;26.15;;;;;;;;;;5046833;28;20491;-69
2022/04/19 05:19:48;;;;;;;35.47;25.88;;;;;;;;;;5042376;28;20032;-68
2022/04/19 05:22:14;;;;;;;30.95;25.35;;;;;;;;;;5045361;28;20017;-69
2022/04/19 05:24:42;;;;;;;31.13;25.20;;;;;;;;;;5042587;28;20036;-68
2022/04/19 05:27:07;;;;;;;31.40;26.20;;;;;;;;;;5043378;28;20041;-68
2022/04/19 05:29:32;;;;;;;31.60;25.60;;;;;;;;;;5041638;28;20043;-68
2022/04/19 05:31:57;;;;;;;31.33;25.80;;;;;;;;;;5029056;28;20853;-67
2022/04/19 05:34:23;;;;;;;32.15;26.35;;;;;;;;;;5061994;28;20033;-69
2022/04/19 05:36:48;;;;;;;34.17;26.08;;;;;;;;;;5062256;28;20029;-68
2022/04/19 05:39:13;;;;;;;30.02;25.55;;;;;;;;;;5063969;28;20023;-68
2022/04/19 05:41:39;;;;;;;31.67;26.80;;;;;;;;;;5065746;28;20107;-68
2022/04/19 05:44:05;;;;;;;34.75;26.35;;;;;;;;;;5062074;28;20470;-68
2022/04/19 05:46:30;;;;;;;36.45;26.67;;;;;;;;;;5063884;28;20742;-68
2022/04/19 05:48:56;;;;;;;33.67;26.90;;;;;;;;;;5060178;28;20092;-68
2022/04/19 05:51:21;;;;;;;35.53;26.98;;;;;;;;;;5065185;28;20032;-70
2022/04/19 05:53:46;;;;;;;32.70;26.98;;;;;;;;;;5062954;28;20054;-68
2022/04/19 05:56:12;;;;;;;32.25;25.70;;;;;;;;;;5064781;28;20054;-69
2022/04/19 05:58:37;;;;;;;33.30;26.48;;;;;;;;;;5062344;28;20044;-68
2022/04/19 06:01:03;;;;;;;34.08;27.00;;;;;;;;;;5062567;28;20034;-69
2022/04/19 06:06:14;;;;;;;36.70;27.88;;;;;;;;;;5064202;28;20055;-69
2022/04/19 06:08:39;;;;;;;35.17;28.77;;;;;;;;;;5063037;28;20028;-68
2022/04/19 06:11:14;;;;;;;32.65;27.73;;;;;;;;;;5044300;28;20386;-69
2022/04/19 06:13:43;;;;;;;32.47;27.13;;;;;;;;;;5064221;28;20450;-68
2022/04/19 06:16:09;;;;;;;35.80;26.83;;;;;;;;;;5062891;28;20029;-68
2022/04/19 06:18:35;;;;;;;41.42;29.15;;;;;;;;;;5059561;28;20028;-69
2022/04/19 06:21:00;;;;;;;34.15;26.70;;;;;;;;;;5063328;28;20027;-69
2022/04/19 06:23:26;;;;;;;30.10;25.15;;;;;;;;;;5063072;28;20021;-69
2022/04/19 06:25:51;;;;;;;29.25;24.02;;;;;;;;;;5063574;28;20028;-69
2022/04/19 06:28:17;;;;;;;29.00;23.00;;;;;;;;;;5062431;28;20081;-69
2022/04/19 06:30:43;;;;;;;25.73;21.70;;;;;;;;;;5062780;28;20023;-70
2022/04/19 06:33:09;;;;;;;27.08;21.58;;;;;;;;;;5059956;28;20025;-69
2022/04/19 06:35:34;;;;;;;24.10;21.00;;;;;;;;;;5044120;28;20028;-68
2022/04/19 06:37:59;;;;;;;20.80;18.38;;;;;;;;;;5041218;28;20132;-69
2022/04/19 06:40:25;;;;;;;23.50;18.63;;;;;;;;;;5043356;28;20103;-68
2022/04/19 06:42:50;;;;;;;21.35;18.38;;;;;;;;;;5053296;28;20054;-68
2022/04/19 06:45:16;;;;;;;20.60;18.30;;;;;;;;;;5045367;28;20036;-68
2022/04/19 06:47:41;;;;;;;19.88;16.95;;;;;;;;;;5064941;28;20032;-69
2022/04/19 06:50:06;;;;;;;20.73;16.92;;;;;;;;;;5052658;28;21281;-69
2022/04/19 06:52:32;;;;;;;23.25;16.35;;;;;;;;;;5044955;28;20083;-68
2022/04/19 06:54:57;;;;;;;19.35;16.50;;;;;;;;;;5044293;28;20028;-70
2022/04/19 06:57:22;;;;;;;18.02;16.10;;;;;;;;;;5047975;28;20021;-67
2022/04/19 06:59:48;;;;;;;18.33;15.25;;;;;;;;;;5067051;28;20093;-68
2022/04/19 07:02:14;;;;;;;19.38;15.45;;;;;;;;;;5061997;28;20541;-68
2022/04/19 07:04:41;;;;;;;19.73;15.38;;;;;;;;;;5058790;28;20149;-69
2022/04/19 07:07:07;;;;;;;18.05;15.02;;;;;;;;;;5054606;28;20047;-69
2022/04/19 07:09:32;;;;;;;17.80;14.75;;;;;;;;;;5061935;28;20017;-70
2022/04/19 07:11:57;;;;;;;18.52;15.18;;;;;;;;;;5060993;28;20020;-68
2022/04/19 07:14:22;;;;;;;17.65;15.10;;;;;;;;;;5061276;28;20047;-69
2022/04/19 07:16:48;;;;;;;17.45;14.80;;;;;;;;;;5041055;28;20194;-68
2022/04/19 07:19:14;;;;;;;18.83;15.57;;;;;;;;;;5024402;28;20585;-69
2022/04/19 07:26:37;;;;;;;16.48;13.77;;;;;;;;;;5042468;28;20395;-68
2022/04/19 07:27:14;;;;;;;18.00;15.30;;;;;;;;;;5036817;28;20033;-68
2022/04/19 07:29:40;;;;;;;17.45;13.52;;;;;;;;;;5041696;28;20037;-68
2022/04/19 07:32:06;;;;;;;16.63;14.18;;;;;;;;;;5041593;28;20056;-68
2022/04/19 07:34:31;;;;;;;18.13;13.68;;;;;;;;;;5039574;28;20431;-68
2022/04/19 07:36:57;;;;;;;19.58;14.90;;;;;;;;;;5045049;28;20036;-69
2022/04/19 07:39:22;;;;;;;15.27;13.00;;;;;;;;;;5062447;28;20107;-68
2022/04/19 07:41:48;;;;;;;17.80;14.63;;;;;;;;;;5059544;28;20369;-68
2022/04/19 07:44:17;;;;;;;16.45;14.23;;;;;;;;;;5058120;28;20021;-69
2022/04/19 07:46:42;;;;;;;19.10;14.60;;;;;;;;;;5061296;28;20024;-68
2022/04/19 07:49:07;;;;;;;15.88;12.50;;;;;;;;;;5058330;28;20041;-69
2022/04/19 07:51:34;;;;;;;16.75;14.55;;;;;;;;;;5060677;28;20093;-69
2022/04/19 07:54:00;;;;;;;17.60;14.20;;;;;;;;;;5058447;28;20028;-68
2022/04/19 07:56:25;;;;;;;16.02;13.65;;;;;;;;;;5059570;28;20599;-68
2022/04/19 07:58:52;;;;;;;16.67;13.85;;;;;;;;;;5060640;28;20035;-67
2022/04/19 08:01:18;;;;;;;19.00;13.85;;;;;;;;;;5044362;28;20028;-69
2022/04/19 08:03:43;;;;;;;17.80;13.60;;;;;;;;;;5060647;28;20017;-69
2022/04/19 08:06:09;;;;;;;17.65;13.18;;;;;;;;;;5058657;28;20024;-68
2022/04/19 08:08:34;;;;;;;17.02;12.98;;;;;;;;;;5042025;28;20172;-69
2022/04/19 08:10:59;;;;;;;18.25;13.55;;;;;;;;;;5039878;28;20059;-69
2022/04/19 08:13:25;;;;;;;16.08;11.38;;;;;;;;;;5056665;28;20028;-68
2022/04/19 08:15:51;;;;;;;14.52;12.07;;;;;;;;;;5060691;28;20364;-69
2022/04/19 08:18:18;;;;;;;15.93;11.60;;;;;;;;;;5059353;28;20107;-67
2022/04/19 08:20:44;;;;;;;14.70;11.27;;;;;;;;;;5063002;28;20046;-68
2022/04/19 08:23:10;;;;;;;16.90;12.43;;;;;;;;;;5066610;28;20089;-69
2022/04/19 08:25:36;;;;;;;14.57;11.10;;;;;;;;;;5065740;28;20021;-68
2022/04/19 08:28:02;;;;;;;14.45;12.18;;;;;;;;;;5064336;28;20033;-68
2022/04/19 08:30:27;;;;;;;14.98;10.90;;;;;;;;;;5067689;28;20031;-70
2022/04/19 08:32:53;;;;;;;17.05;11.88;;;;;;;;;;5067846;28;20016;-67
2022/04/19 08:35:18;;;;;;;13.30;10.50;;;;;;;;;;5064187;28;20169;-68
2022/04/19 08:37:45;;;;;;;15.27;10.63;;;;;;;;;;5068595;28;20400;-68
2022/04/19 08:40:12;;;;;;;13.40;10.68;;;;;;;;;;5048703;28;20648;-68
2022/04/19 08:42:40;;;;;;;12.27;10.55;;;;;;;;;;5062589;28;20020;-68
2022/04/19 08:45:07;;;;;;;13.93;10.57;;;;;;;;;;5043241;28;20052;-68
2022/04/19 08:47:33;;;;;;;13.20;10.30;;;;;;;;;;5047814;28;20502;-68
2022/04/19 08:50:02;;;;;;;11.75;10.02;;;;;;;;;;5044159;28;20025;-69
2022/04/19 08:52:28;;;;;;;12.93;10.02;;;;;;;;;;5050917;28;20022;-76
2022/04/19 08:57:40;;;;;;;13.13;8.90;;;;;;;;;;5052326;28;20108;-74
2022/04/19 09:00:06;;;;;;;13.55;9.38;;;;;;;;;;5028485;28;20458;-76
2022/04/19 09:02:32;;;;;;;12.23;8.23;;;;;;;;;;5026431;28;20571;-75
2022/04/19 09:05:16;;;;;;;7.78;5.90;;;;;;;;;;5050293;28;20127;-74
2022/04/19 09:07:43;;;;;;;8.35;5.35;;;;;;;;;;5064173;28;20082;-75
2022/04/19 09:10:11;;;;;;;7.55;5.60;;;;;;;;;;5064744;28;20136;-75
2022/04/19 09:12:37;;;;;;;7.50;5.88;;;;;;;;;;5062600;28;20048;-75
2022/04/19 09:15:06;;;;;;;10.18;6.13;;;;;;;;;;5059663;28;20158;-75
2022/04/19 09:17:32;;;;;;;7.40;5.30;;;;;;;;;;5064635;28;20043;-74
2022/04/19 09:20:15;;;;;;;8.43;6.32;;;;;;;;;;5062278;28;20024;-75
2022/04/19 09:22:42;;;;;;;9.23;6.25;;;;;;;;;;5061972;28;20020;-74
2022/04/19 09:25:18;;;;;;;9.98;6.80;;;;;;;;;;5042533;28;20044;-74
2022/04/19 09:27:44;;;;;;;8.52;6.55;;;;;;;;;;5041208;28;20337;-74
2022/04/19 09:30:16;;;;;;;10.60;7.72;;;;;;;;;;5041285;28;20024;-74
2022/04/19 09:32:41;;;;;;;9.77;6.60;;;;;;;;;;5026969;28;20119;-74
2022/04/19 09:35:06;;;;;;;10.20;6.53;;;;;;;;;;5043463;28;20115;-73
2022/04/19 09:37:32;;;;;;;8.80;6.50;;;;;;;;;;5065431;28;20355;-74
2022/04/19 09:39:59;;;;;;;8.43;7.07;;;;;;;;;;5048447;28;20024;-76
2022/04/19 09:42:25;;;;;;;8.70;7.05;;;;;;;;;;5060569;28;20107;-75
2022/04/19 09:44:51;;;;;;;10.77;7.63;;;;;;;;;;5062712;28;20016;-74
2022/04/19 09:47:17;;;;;;;10.05;7.18;;;;;;;;;;5062310;28;20537;-74
2022/04/19 09:49:49;;;;;;;10.10;7.03;;;;;;;;;;5061159;28;20375;-75
2022/04/19 09:52:23;;;;;;;10.38;7.40;;;;;;;;;;5050237;28;20036;-75
2022/04/19 09:55:08;;;;;;;9.75;7.75;;;;;;;;;;5049623;28;20385;-73
2022/04/19 09:57:35;;;;;;;11.43;7.50;;;;;;;;;;5042377;28;20024;-74
2022/04/19 10:00:03;;;;;;;9.55;7.35;;;;;;;;;;5040280;28;20035;-77
2022/04/19 10:08:13;;;;;;;10.18;7.78;;;;;;;;;;5043402;28;20036;-73
2022/04/19 10:10:39;;;;;;;9.57;7.38;;;;;;;;;;5047107;28;20488;-74
2022/04/19 10:13:05;;;;;;;10.70;8.07;;;;;;;;;;5058965;28;20043;-75
2022/04/19 10:15:34;;;;;;;12.50;8.73;;;;;;;;;;5062380;28;20042;-75
2022/04/19 10:18:00;;;;;;;10.32;8.23;;;;;;;;;;5061806;28;20024;-75
2022/04/19 10:20:31;;;;;;;11.23;8.13;;;;;;;;;;5058944;28;20463;-75
2022/04/19 10:23:02;;;;;;;10.80;7.38;;;;;;;;;;5048637;28;20036;-74
2022/04/19 10:25:40;;;;;;;10.13;7.78;;;;;;;;;;5039015;28;20059;-75
2022/04/19 10:28:11;;;;;;;12.23;8.43;;;;;;;;;;5038988;28;20479;-76
2022/04/19 10:30:37;;;;;;;12.60;9.82;;;;;;;;;;5042878;28;20120;-72
2022/04/19 10:33:21;;;;;;;11.68;7.80;;;;;;;;;;5062343;28;20023;-75
2022/04/19 10:36:08;;;;;;;10.20;7.65;;;;;;;;;;5063470;28;20032;-75
2022/04/19 10:38:33;;;;;;;10.00;7.07;;;;;;;;;;5062520;28;20016;-75
2022/04/19 10:40:58;;;;;;;12.07;7.40;;;;;;;;;;5059315;28;20027;-75
2022/04/19 10:43:27;;;;;;;12.48;7.82;;;;;;;;;;5049810;28;20055;-74
2022/04/19 10:45:53;;;;;;;10.23;7.00;;;;;;;;;;5041121;28;20123;-74
2022/04/19 10:48:18;;;;;;;10.60;7.63;;;;;;;;;;5053797;28;20486;-74
2022/04/19 10:50:47;;;;;;;10.73;7.50;;;;;;;;;;5046816;28;20093;-75
2022/04/19 10:53:13;;;;;;;10.13;7.35;;;;;;;;;;5061555;28;20036;-74
2022/04/19 10:55:58;;;;;;;9.55;6.90;;;;;;;;;;5052555;28;20032;-76
2022/04/19 10:58:40;;;;;;;9.80;6.35;;;;;;;;;;5039457;28;20021;-76
2022/04/19 11:01:09;;;;;;;9.32;6.88;;;;;;;;;;5040428;28;20017;-74
2022/04/19 11:03:52;;;;;;;7.97;5.97;;;;;;;;;;5023675;28;20307;-76
2022/04/19 11:06:30;;;;;;;9.13;7.05;;;;;;;;;;5052707;28;20078;-76
2022/04/19 11:09:14;;;;;;;9.88;7.00;;;;;;;;;;5042007;28;20021;-75
2022/04/19 11:11:47;;;;;;;9.65;7.10;;;;;;;;;;5053644;28;20263;-75
2022/04/19 11:14:23;;;;;;;11.38;7.68;;;;;;;;;;5044784;28;20355;-72
2022/04/19 11:16:51;;;;;;;11.95;8.23;;;;;;;;;;5066316;28;20081;-75
2022/04/19 11:19:17;;;;;;;12.93;8.45;;;;;;;;;;5051619;28;20051;-74
2022/04/19 11:21:45;;;;;;;12.63;8.32;;;;;;;;;;5066644;28;20478;-75
2022/04/19 11:24:11;;;;;;;10.02;8.00;;;;;;;;;;5060833;28;20028;-75
2022/04/19 11:26:42;;;;;;;11.20;7.82;;;;;;;;;;5061852;28;20038;-75
2022/04/19 11:29:10;;;;;;;10.52;7.70;;;;;;;;;;5060115;28;20486;-75
2022/04/19 11:31:36;;;;;;;10.73;7.25;;;;;;;;;;5063086;28;20085;-74
2022/04/19 11:34:10;;;;;;;11.43;7.55;;;;;;;;;;5062251;28;20024;-75
2022/04/19 11:36:36;;;;;;;11.05;8.43;;;;;;;;;;5063134;28;20391;-74
2022/04/19 11:39:01;;;;;;;11.02;8.23;;;;;;;;;;5062485;28;20012;-74
2022/04/19 11:47:18;;;;;;;11.00;7.50;;;;;;;;;;5059356;28;20051;-74
2022/04/19 11:49:43;;;;;;;10.50;7.97;;;;;;;;;;5041282;28;20056;-74
2022/04/19 11:52:12;;;;;;;13.85;7.10;;;;;;;;;;5051910;28;20076;-74
2022/04/19 11:54:37;;;;;;;11.18;7.18;;;;;;;;;;5049661;28;20440;-76
2022/04/19 11:57:04;;;;;;;10.52;7.60;;;;;;;;;;5024137;28;20047;-75
2022/04/19 11:59:30;;;;;;;10.30;7.78;;;;;;;;;;5044276;28;20550;-76
2022/04/19 12:01:56;;;;;;;9.32;7.10;;;;;;;;;;5043577;28;20484;-74
2022/04/19 12:04:21;;;;;;;8.32;6.60;;;;;;;;;;5037642;28;20132;-73
2022/04/19 12:06:48;;;;;;;12.10;7.15;;;;;;;;;;5023465;28;20468;-74
2022/04/19 12:09:14;;;;;;;9.35;7.05;;;;;;;;;;5040486;28;20029;-74
2022/04/19 12:11:40;;;;;;;10.68;7.68;;;;;;;;;;5056601;28;20163;-74
2022/04/19 12:14:07;;;;;;;10.02;7.30;;;;;;;;;;5058913;28;20622;-76
2022/04/19 12:16:36;;;;;;;10.70;8.18;;;;;;;;;;5060061;28;20308;-74
2022/04/19 12:19:07;;;;;;;10.23;7.88;;;;;;;;;;5060764;28;20025;-74
2022/04/19 12:21:45;;;;;;;10.02;8.18;;;;;;;;;;5060047;28;20584;-74
2022/04/19 12:24:20;;;;;;;11.18;8.68;;;;;;;;;;5062280;28;20078;-73
2022/04/19 12:26:49;;;;;;;11.98;7.75;;;;;;;;;;5054693;28;20448;-75
2022/04/19 12:29:16;;;;;;;12.07;8.57;;;;;;;;;;5037678;28;20029;-74
2022/04/19 12:31:44;;;;;;;10.52;8.32;;;;;;;;;;5023058;28;20039;-74
2022/04/19 12:34:10;;;;;;;12.18;8.30;;;;;;;;;;5054214;28;20039;-74
2022/04/19 12:36:42;;;;;;;11.25;8.05;;;;;;;;;;5058394;28;20125;-74
2022/04/19 12:39:07;;;;;;;10.98;8.05;;;;;;;;;;5060672;28;20024;-74
2022/04/19 12:41:33;;;;;;;11.18;8.13;;;;;;;;;;5057911;28;20086;-74
2022/04/19 12:44:02;;;;;;;11.30;8.00;;;;;;;;;;5059887;28;20043;-73
2022/04/19 12:46:28;;;;;;;11.20;7.95;;;;;;;;;;5061263;28;20119;-74
2022/04/19 12:48:53;;;;;;;11.25;8.48;;;;;;;;;;5060486;28;20097;-74
2022/04/19 12:51:24;;;;;;;10.90;8.20;;;;;;;;;;5060907;28;20391;-75
2022/04/19 12:54:01;;;;;;;10.15;7.05;;;;;;;;;;5046062;28;20044;-74
2022/04/19 12:56:27;;;;;;;12.00;7.53;;;;;;;;;;5057310;28;20503;-72
2022/04/19 12:58:54;;;;;;;12.32;8.05;;;;;;;;;;5050497;28;20020;-73
2022/04/19 13:01:19;;;;;;;14.63;9.38;;;;;;;;;;5041761;28;20587;-74
2022/04/19 13:03:45;;;;;;;15.52;9.73;;;;;;;;;;5042812;28;20150;-74
2022/04/19 13:14:22;;;;;;;15.43;10.57;;;;;;;;;;5062400;28;20506;-75
2022/04/19 13:16:48;;;;;;;14.85;10.23;;;;;;;;;;5066105;28;20020;-74
2022/04/19 13:19:13;;;;;;;12.88;9.95;;;;;;;;;;5048429;28;20021;-74
2022/04/19 13:21:39;;;;;;;14.55;10.18;;;;;;;;;;5028330;28;20598;-74
2022/04/19 13:24:05;;;;;;;13.80;9.27;;;;;;;;;;5036014;28;20950;-76
2022/04/19 13:26:31;;;;;;;14.00;9.88;;;;;;;;;;5062584;28;20068;-75
2022/04/19 13:28:56;;;;;;;13.80;10.82;;;;;;;;;;5063516;28;20064;-74
2022/04/19 13:31:23;;;;;;;13.55;9.68;;;;;;;;;;5065836;28;20056;-74
2022/04/19 13:33:48;;;;;;;13.48;9.57;;;;;;;;;;5064441;28;20023;-75
2022/04/19 13:36:13;;;;;;;13.32;9.75;;;;;;;;;;5066421;28;20020;-74
2022/04/19 13:38:39;;;;;;;13.27;10.02;;;;;;;;;;5068544;28;20024;-76
2022/04/19 13:41:06;;;;;;;13.88;10.07;;;;;;;;;;5071970;28;20086;-75
2022/04/19 13:43:31;;;;;;;13.88;8.85;;;;;;;;;;5066011;28;20493;-75
2022/04/19 13:45:56;;;;;;;16.80;12.18;;;;;;;;;;5063648;28;20033;-75
2022/04/19 13:48:22;;;;;;;15.85;11.85;;;;;;;;;;5050988;28;20021;-74
2022/04/19 13:50:47;;;;;;;18.10;12.02;;;;;;;;;;5044672;28;20377;-77
2022/04/19 13:53:13;;;;;;;15.52;10.98;;;;;;;;;;5057185;28;20029;-76
2022/04/19 13:55:38;;;;;;;16.67;11.15;;;;;;;;;;5026708;28;20458;-77
2022/04/19 13:58:03;;;;;;;17.73;11.30;;;;;;;;;;5049343;28;20043;-75
2022/04/19 14:00:29;;;;;;;15.98;11.32;;;;;;;;;;5062706;28;20732;-74
2022/04/19 14:02:54;;;;;;;15.15;10.90;;;;;;;;;;5041345;28;20070;-76
2022/04/19 14:05:20;;;;;;;15.90;10.63;;;;;;;;;;5050473;28;20048;-76
2022/04/19 14:07:46;;;;;;;15.73;10.73;;;;;;;;;;5055832;28;20025;-74
2022/04/19 14:10:11;;;;;;;17.95;10.73;;;;;;;;;;5044353;28;20028;-75
2022/04/19 14:12:37;;;;;;;14.48;10.15;;;;;;;;;;5027212;28;20025;-75
2022/04/19 14:15:03;;;;;;;14.05;9.65;;;;;;;;;;5043478;28;20052;-75
2022/04/19 14:17:29;;;;;;;15.35;9.65;;;;;;;;;;5060602;28;20055;-75
2022/04/19 14:19:56;;;;;;;14.55;11.20;;;;;;;;;;5045487;28;20024;-74
2022/04/19 14:22:22;;;;;;;14.48;10.45;;;;;;;;;;5063016;28;20029;-77
2022/04/19 14:24:48;;;;;;;15.55;10.57;;;;;;;;;;5061476;28;20032;-75
2022/04/19 14:27:13;;;;;;;16.33;10.30;;;;;;;;;;5043539;28;20036;-75
2022/04/19 14:35:07;;;;;;;14.95;10.05;;;;;;;;;;5041708;28;20051;-75
2022/04/19 14:37:32;;;;;;;15.77;9.77;;;;;;;;;;5052326;28;20360;-77
2022/04/19 14:40:00;;;;;;;16.08;9.55;;;;;;;;;;5047517;28;20016;-76
2022/04/19 14:42:26;;;;;;;15.20;10.27;;;;;;;;;;5062905;28;20461;-74
2022/04/19 14:44:51;;;;;;;19.13;10.68;;;;;;;;;;5045528;28;20029;-75
2022/04/19 14:47:17;;;;;;;16.60;9.80;;;;;;;;;;5066427;28;20047;-75
2022/04/19 14:49:42;;;;;;;15.40;9.27;;;;;;;;;;5060124;28;20206;-75
2022/04/19 14:52:21;;;;;;;15.25;9.55;;;;;;;;;;5065246;28;20337;-75
2022/04/19 14:54:48;;;;;;;15.43;10.27;;;;;;;;;;5063320;28;20695;-75
2022/04/19 14:57:13;;;;;;;14.32;9.40;;;;;;;;;;5057733;28;20064;-76
2022/04/19 14:59:39;;;;;;;15.75;9.95;;;;;;;;;;5042275;28;20071;-75
2022/04/19 15:02:04;;;;;;;17.45;9.68;;;;;;;;;;5043881;28;20035;-76
2022/04/19 15:04:30;;;;;;;14.38;8.55;;;;;;;;;;5038946;28;20164;-75
2022/04/19 15:06:55;;;;;;;13.60;9.18;;;;;;;;;;5045855;28;20021;-76